sensor_id;sensor_type;location;lat;lon;timestamp;P1;durP1;ratioP1;P2;durP2;ratioP2
51179;SDS011;37243;49.814;8.652;2023-02-15T00:00:06;4.03;;;3.83;;
51179;SDS011;37243;49.814;8.652;2023-02-15T00:02:37;3.80;;;3.60;;
51179;SDS011;37243;49.814;8.652;2023-02-15T00:05:08;3.78;;;3.58;;
51179;SDS011;37243;49.814;8.652;2023-02-15T00:07:36;3.63;;;3.42;;
51179;SDS011;37243;49.814;8.652;2023-02-15T00:10:05;3.45;;;3.25;;
51179;SDS011;37243;49.814;8.652;2023-02-15T00:12:36;3.60;;;3.40;;
51179;SDS011;37243;49.814;8.652;2023-02-15T00:15:04;4.05;;;3.75;;
51179;SDS011;37243;49.814;8.652;2023-02-15T00:17:32;4.03;;;3.72;;
51179;SDS011;37243;49.814;8.652;2023-02-15T00:20:01;3.45;;;3.25;;
51179;SDS011;37243;49.814;8.652;2023-02-15T00:22:32;3.10;;;2.95;;
51179;SDS011;37243;49.814;8.652;2023-02-15T00:25:00;3.38;;;3.17;;
51179;SDS011;37243;49.814;8.652;2023-02-15T00:27:28;3.30;;;3.10;;
51179;SDS011;37243;49.814;8.652;2023-02-15T00:29:57;3.75;;;3.55;;
51179;SDS011;37243;49.814;8.652;2023-02-15T00:32:25;3.47;;;3.25;;
51179;SDS011;37243;49.814;8.652;2023-02-15T00:34:53;3.53;;;3.33;;
51179;SDS011;37243;49.814;8.652;2023-02-15T00:37:21;3.08;;;2.88;;
51179;SDS011;37243;49.814;8.652;2023-02-15T00:39:52;3.22;;;3.03;;
51179;SDS011;37243;49.814;8.652;2023-02-15T00:42:21;3.10;;;3.00;;
51179;SDS011;37243;49.814;8.652;2023-02-15T00:44:49;3.28;;;3.17;;
51179;SDS011;37243;49.814;8.652;2023-02-15T00:47:17;2.90;;;2.80;;
51179;SDS011;37243;49.814;8.652;2023-02-15T00:49:45;3.10;;;3.00;;
51179;SDS011;37243;49.814;8.652;2023-02-15T00:52:14;2.90;;;2.78;;
51179;SDS011;37243;49.814;8.652;2023-02-15T00:54:42;3.30;;;3.10;;
51179;SDS011;37243;49.814;8.652;2023-02-15T00:57:13;3.17;;;2.97;;
51179;SDS011;37243;49.814;8.652;2023-02-15T00:59:41;3.05;;;2.85;;
51179;SDS011;37243;49.814;8.652;2023-02-15T01:02:09;3.00;;;2.90;;
51179;SDS011;37243;49.814;8.652;2023-02-15T01:04:38;2.85;;;2.70;;
51179;SDS011;37243;49.814;8.652;2023-02-15T01:07:06;3.05;;;2.85;;
51179;SDS011;37243;49.814;8.652;2023-02-15T01:09:34;2.90;;;2.80;;
51179;SDS011;37243;49.814;8.652;2023-02-15T01:12:03;2.90;;;2.80;;
51179;SDS011;37243;49.814;8.652;2023-02-15T01:14:34;2.38;;;2.28;;
51179;SDS011;37243;49.814;8.652;2023-02-15T01:17:02;2.60;;;2.50;;
51179;SDS011;37243;49.814;8.652;2023-02-15T01:19:30;2.72;;;2.63;;
51179;SDS011;37243;49.814;8.652;2023-02-15T01:21:59;2.80;;;2.70;;
51179;SDS011;37243;49.814;8.652;2023-02-15T01:24:27;2.70;;;2.60;;
51179;SDS011;37243;49.814;8.652;2023-02-15T01:26:56;2.80;;;2.70;;
51179;SDS011;37243;49.814;8.652;2023-02-15T01:29:24;2.85;;;2.75;;
51179;SDS011;37243;49.814;8.652;2023-02-15T01:31:55;2.97;;;2.88;;
51179;SDS011;37243;49.814;8.652;2023-02-15T01:34:23;2.53;;;2.42;;
51179;SDS011;37243;49.814;8.652;2023-02-15T01:36:51;3.15;;;2.95;;
51179;SDS011;37243;49.814;8.652;2023-02-15T01:39:20;3.28;;;3.08;;
51179;SDS011;37243;49.814;8.652;2023-02-15T01:41:48;2.83;;;2.72;;
51179;SDS011;37243;49.814;8.652;2023-02-15T01:47:17;3.03;;;2.88;;
51179;SDS011;37243;49.814;8.652;2023-02-15T01:49:50;3.08;;;2.88;;
51179;SDS011;37243;49.814;8.652;2023-02-15T01:52:26;2.83;;;2.63;;
51179;SDS011;37243;49.814;8.652;2023-02-15T01:54:56;3.10;;;2.90;;
51179;SDS011;37243;49.814;8.652;2023-02-15T01:57:25;2.55;;;2.45;;
51179;SDS011;37243;49.814;8.652;2023-02-15T01:59:56;2.78;;;2.67;;
51179;SDS011;37243;49.814;8.652;2023-02-15T02:02:29;3.00;;;2.90;;
51179;SDS011;37243;49.814;8.652;2023-02-15T02:04:58;2.53;;;2.42;;
51179;SDS011;37243;49.814;8.652;2023-02-15T02:07:32;2.90;;;2.80;;
51179;SDS011;37243;49.814;8.652;2023-02-15T02:10:03;2.95;;;2.85;;
51179;SDS011;37243;49.814;8.652;2023-02-15T02:12:33;2.22;;;2.13;;
51179;SDS011;37243;49.814;8.652;2023-02-15T02:15:04;2.65;;;2.55;;
51179;SDS011;37243;49.814;8.652;2023-02-15T02:17:40;2.60;;;2.40;;
51179;SDS011;37243;49.814;8.652;2023-02-15T02:20:28;2.78;;;2.67;;
51179;SDS011;37243;49.814;8.652;2023-02-15T02:23:18;3.20;;;3.00;;
51179;SDS011;37243;49.814;8.652;2023-02-15T02:32:06;2.40;;;2.30;;
51179;SDS011;37243;49.814;8.652;2023-02-15T02:34:56;2.80;;;2.70;;
51179;SDS011;37243;49.814;8.652;2023-02-15T02:37:30;2.53;;;2.40;;
51179;SDS011;37243;49.814;8.652;2023-02-15T02:40:08;2.70;;;2.60;;
51179;SDS011;37243;49.814;8.652;2023-02-15T02:42:45;2.50;;;2.40;;
51179;SDS011;37243;49.814;8.652;2023-02-15T02:45:20;2.85;;;2.63;;
51179;SDS011;37243;49.814;8.652;2023-02-15T02:47:54;2.50;;;2.40;;
51179;SDS011;37243;49.814;8.652;2023-02-15T02:50:29;2.55;;;2.45;;
51179;SDS011;37243;49.814;8.652;2023-02-15T02:52:58;2.50;;;2.40;;
51179;SDS011;37243;49.814;8.652;2023-02-15T02:55:28;2.78;;;2.67;;
51179;SDS011;37243;49.814;8.652;2023-02-15T02:58:00;2.53;;;2.42;;
51179;SDS011;37243;49.814;8.652;2023-02-15T03:00:34;2.67;;;2.58;;
51179;SDS011;37243;49.814;8.652;2023-02-15T03:03:07;2.72;;;2.63;;
51179;SDS011;37243;49.814;8.652;2023-02-15T03:05:43;2.53;;;2.42;;
51179;SDS011;37243;49.814;8.652;2023-02-15T03:08:15;2.33;;;2.22;;
51179;SDS011;37243;49.814;8.652;2023-02-15T03:10:47;2.50;;;2.40;;
51179;SDS011;37243;49.814;8.652;2023-02-15T03:13:16;2.70;;;2.60;;
51179;SDS011;37243;49.814;8.652;2023-02-15T03:15:45;2.53;;;2.42;;
51179;SDS011;37243;49.814;8.652;2023-02-15T03:18:28;2.53;;;2.42;;
51179;SDS011;37243;49.814;8.652;2023-02-15T03:21:02;2.67;;;2.47;;
51179;SDS011;37243;49.814;8.652;2023-02-15T03:23:32;2.85;;;2.75;;
51179;SDS011;37243;49.814;8.652;2023-02-15T03:26:02;2.40;;;2.30;;
51179;SDS011;37243;49.814;8.652;2023-02-15T03:28:34;2.33;;;2.22;;
51179;SDS011;37243;49.814;8.652;2023-02-15T03:31:07;2.42;;;2.33;;
51179;SDS011;37243;49.814;8.652;2023-02-15T03:33:40;2.30;;;2.20;;
51179;SDS011;37243;49.814;8.652;2023-02-15T03:36:15;2.42;;;2.33;;
51179;SDS011;37243;49.814;8.652;2023-02-15T03:38:49;2.55;;;2.45;;
51179;SDS011;37243;49.814;8.652;2023-02-15T03:41:25;2.72;;;2.63;;
51179;SDS011;37243;49.814;8.652;2023-02-15T03:43:58;2.50;;;2.40;;
51179;SDS011;37243;49.814;8.652;2023-02-15T03:46:33;2.58;;;2.42;;
51179;SDS011;37243;49.814;8.652;2023-02-15T03:49:08;2.28;;;2.17;;
51179;SDS011;37243;49.814;8.652;2023-02-15T03:51:44;2.42;;;2.33;;
51179;SDS011;37243;49.814;8.652;2023-02-15T03:54:16;2.60;;;2.50;;
51179;SDS011;37243;49.814;8.652;2023-02-15T03:57:00;2.42;;;2.33;;
51179;SDS011;37243;49.814;8.652;2023-02-15T03:59:41;2.30;;;2.20;;
51179;SDS011;37243;49.814;8.652;2023-02-15T04:02:22;2.38;;;2.28;;
51179;SDS011;37243;49.814;8.652;2023-02-15T04:04:58;2.50;;;2.40;;
51179;SDS011;37243;49.814;8.652;2023-02-15T04:07:29;2.55;;;2.45;;
51179;SDS011;37243;49.814;8.652;2023-02-15T04:09:57;2.60;;;2.50;;
51179;SDS011;37243;49.814;8.652;2023-02-15T04:12:38;2.90;;;2.80;;
51179;SDS011;37243;49.814;8.652;2023-02-15T04:15:07;2.65;;;2.45;;
51179;SDS011;37243;49.814;8.652;2023-02-15T04:17:51;2.45;;;2.35;;
51179;SDS011;37243;49.814;8.652;2023-02-15T04:20:20;2.40;;;2.30;;
51179;SDS011;37243;49.814;8.652;2023-02-15T04:23:03;2.38;;;2.28;;
51179;SDS011;37243;49.814;8.652;2023-02-15T04:25:45;2.80;;;2.70;;
51179;SDS011;37243;49.814;8.652;2023-02-15T04:28:14;2.90;;;2.80;;
51179;SDS011;37243;49.814;8.652;2023-02-15T04:30:42;2.20;;;2.10;;
51179;SDS011;37243;49.814;8.652;2023-02-15T04:33:10;2.58;;;2.38;;
51179;SDS011;37243;49.814;8.652;2023-02-15T04:35:39;2.58;;;2.47;;
51179;SDS011;37243;49.814;8.652;2023-02-15T04:38:10;2.20;;;2.10;;
51179;SDS011;37243;49.814;8.652;2023-02-15T04:40:39;2.58;;;2.47;;
51179;SDS011;37243;49.814;8.652;2023-02-15T04:43:07;2.30;;;2.20;;
51179;SDS011;37243;49.814;8.652;2023-02-15T04:45:35;2.67;;;2.58;;
51179;SDS011;37243;49.814;8.652;2023-02-15T04:48:04;2.78;;;2.67;;
51179;SDS011;37243;49.814;8.652;2023-02-15T04:50:32;2.70;;;2.60;;
51179;SDS011;37243;49.814;8.652;2023-02-15T04:53:00;2.45;;;2.35;;
51179;SDS011;37243;49.814;8.652;2023-02-15T04:55:31;2.45;;;2.35;;
51179;SDS011;37243;49.814;8.652;2023-02-15T04:57:59;2.20;;;2.10;;
51179;SDS011;37243;49.814;8.652;2023-02-15T05:00:28;1.83;;;1.83;;
51179;SDS011;37243;49.814;8.652;2023-02-15T05:02:56;2.35;;;2.25;;
51179;SDS011;37243;49.814;8.652;2023-02-15T05:05:24;2.08;;;1.98;;
51179;SDS011;37243;49.814;8.652;2023-02-15T05:07:53;2.22;;;2.13;;
51179;SDS011;37243;49.814;8.652;2023-02-15T05:10:21;1.98;;;1.92;;
51179;SDS011;37243;49.814;8.652;2023-02-15T05:12:52;1.70;;;1.70;;
51179;SDS011;37243;49.814;8.652;2023-02-15T05:15:21;1.60;;;1.60;;
51179;SDS011;37243;49.814;8.652;2023-02-15T05:17:49;2.22;;;2.13;;
51179;SDS011;37243;49.814;8.652;2023-02-15T05:20:17;2.17;;;2.08;;
51179;SDS011;37243;49.814;8.652;2023-02-15T05:22:46;2.15;;;2.05;;
51179;SDS011;37243;49.814;8.652;2023-02-15T05:25:14;2.25;;;2.15;;
51179;SDS011;37243;49.814;8.652;2023-02-15T05:27:58;2.20;;;2.10;;
51179;SDS011;37243;49.814;8.652;2023-02-15T05:30:38;2.13;;;2.03;;
51179;SDS011;37243;49.814;8.652;2023-02-15T05:33:07;2.30;;;2.20;;
51179;SDS011;37243;49.814;8.652;2023-02-15T05:35:36;2.58;;;2.30;;
51179;SDS011;37243;49.814;8.652;2023-02-15T05:38:04;2.15;;;2.05;;
51179;SDS011;37243;49.814;8.652;2023-02-15T05:40:33;2.17;;;2.08;;
51179;SDS011;37243;49.814;8.652;2023-02-15T05:43:04;2.25;;;2.15;;
51179;SDS011;37243;49.814;8.652;2023-02-15T05:45:32;2.45;;;2.25;;
51179;SDS011;37243;49.814;8.652;2023-02-15T05:48:00;2.33;;;2.20;;
51179;SDS011;37243;49.814;8.652;2023-02-15T05:50:29;2.50;;;2.40;;
51179;SDS011;37243;49.814;8.652;2023-02-15T05:52:57;2.42;;;2.33;;
51179;SDS011;37243;49.814;8.652;2023-02-15T05:55:26;2.53;;;2.42;;
51179;SDS011;37243;49.814;8.652;2023-02-15T05:57:54;2.50;;;2.40;;
51179;SDS011;37243;49.814;8.652;2023-02-15T06:00:25;2.40;;;2.30;;
51179;SDS011;37243;49.814;8.652;2023-02-15T06:02:53;2.58;;;2.47;;
51179;SDS011;37243;49.814;8.652;2023-02-15T06:05:22;2.45;;;2.35;;
51179;SDS011;37243;49.814;8.652;2023-02-15T06:07:50;2.45;;;2.35;;
51179;SDS011;37243;49.814;8.652;2023-02-15T06:10:18;2.42;;;2.33;;
51179;SDS011;37243;49.814;8.652;2023-02-15T06:12:47;2.40;;;2.30;;
51179;SDS011;37243;49.814;8.652;2023-02-15T06:15:15;2.42;;;2.33;;
51179;SDS011;37243;49.814;8.652;2023-02-15T06:17:46;2.60;;;2.50;;
51179;SDS011;37243;49.814;8.652;2023-02-15T06:20:14;2.60;;;2.40;;
51179;SDS011;37243;49.814;8.652;2023-02-15T06:22:43;3.13;;;2.40;;
51179;SDS011;37243;49.814;8.652;2023-02-15T06:25:11;2.60;;;2.40;;
51179;SDS011;37243;49.814;8.652;2023-02-15T06:27:40;2.97;;;2.70;;
51179;SDS011;37243;49.814;8.652;2023-02-15T06:30:10;2.50;;;2.40;;
51179;SDS011;37243;49.814;8.652;2023-02-15T06:32:39;2.65;;;2.45;;
51179;SDS011;37243;49.814;8.652;2023-02-15T06:35:10;3.85;;;2.72;;
51179;SDS011;37243;49.814;8.652;2023-02-15T06:37:39;3.05;;;2.80;;
51179;SDS011;37243;49.814;8.652;2023-02-15T06:40:08;2.72;;;2.53;;
51179;SDS011;37243;49.814;8.652;2023-02-15T06:42:37;2.47;;;2.28;;
51179;SDS011;37243;49.814;8.652;2023-02-15T06:45:05;4.20;;;2.55;;
51179;SDS011;37243;49.814;8.652;2023-02-15T06:47:34;2.97;;;2.78;;
51179;SDS011;37243;49.814;8.652;2023-02-15T06:50:02;2.85;;;2.70;;
51179;SDS011;37243;49.814;8.652;2023-02-15T06:52:34;2.90;;;2.70;;
51179;SDS011;37243;49.814;8.652;2023-02-15T06:55:02;2.53;;;2.42;;
51179;SDS011;37243;49.814;8.652;2023-02-15T06:57:31;2.90;;;2.70;;
51179;SDS011;37243;49.814;8.652;2023-02-15T07:00:00;2.90;;;2.70;;
51179;SDS011;37243;49.814;8.652;2023-02-15T07:02:29;3.08;;;2.67;;
51179;SDS011;37243;49.814;8.652;2023-02-15T07:04:58;2.80;;;2.60;;
51179;SDS011;37243;49.814;8.652;2023-02-15T07:07:26;3.03;;;2.83;;
51179;SDS011;37243;49.814;8.652;2023-02-15T07:09:57;2.80;;;2.58;;
51179;SDS011;37243;49.814;8.652;2023-02-15T07:12:25;3.00;;;2.80;;
51179;SDS011;37243;49.814;8.652;2023-02-15T07:15:07;3.00;;;2.80;;
51179;SDS011;37243;49.814;8.652;2023-02-15T07:17:36;2.88;;;2.67;;
51179;SDS011;37243;49.814;8.652;2023-02-15T07:20:05;2.92;;;2.72;;
51179;SDS011;37243;49.814;8.652;2023-02-15T07:22:35;3.20;;;2.90;;
51179;SDS011;37243;49.814;8.652;2023-02-15T07:25:07;3.22;;;3.03;;
51179;SDS011;37243;49.814;8.652;2023-02-15T07:27:38;2.35;;;2.25;;
51179;SDS011;37243;49.814;8.652;2023-02-15T07:30:07;2.72;;;2.53;;
51179;SDS011;37243;49.814;8.652;2023-02-15T07:32:37;2.90;;;2.70;;
51179;SDS011;37243;49.814;8.652;2023-02-15T07:35:26;3.38;;;3.08;;
51179;SDS011;37243;49.814;8.652;2023-02-15T07:37:54;3.53;;;3.00;;
51179;SDS011;37243;49.814;8.652;2023-02-15T07:40:25;3.00;;;2.80;;
51179;SDS011;37243;49.814;8.652;2023-02-15T07:42:57;3.58;;;2.80;;
51179;SDS011;37243;49.814;8.652;2023-02-15T07:45:26;2.70;;;2.50;;
51179;SDS011;37243;49.814;8.652;2023-02-15T07:47:54;4.28;;;3.10;;
51179;SDS011;37243;49.814;8.652;2023-02-15T07:50:23;3.30;;;3.10;;
51179;SDS011;37243;49.814;8.652;2023-02-15T07:52:51;3.20;;;2.95;;
51179;SDS011;37243;49.814;8.652;2023-02-15T07:55:19;3.03;;;2.80;;
51179;SDS011;37243;49.814;8.652;2023-02-15T07:57:50;3.08;;;2.88;;
51179;SDS011;37243;49.814;8.652;2023-02-15T08:00:19;3.28;;;3.08;;
51179;SDS011;37243;49.814;8.652;2023-02-15T08:02:50;3.53;;;3.30;;
51179;SDS011;37243;49.814;8.652;2023-02-15T08:05:38;3.55;;;3.35;;
51179;SDS011;37243;49.814;8.652;2023-02-15T08:08:07;3.50;;;3.30;;
51179;SDS011;37243;49.814;8.652;2023-02-15T08:10:56;3.75;;;3.45;;
51179;SDS011;37243;49.814;8.652;2023-02-15T08:13:40;3.42;;;3.13;;
51179;SDS011;37243;49.814;8.652;2023-02-15T08:16:19;3.30;;;3.00;;
51179;SDS011;37243;49.814;8.652;2023-02-15T08:18:48;3.85;;;3.42;;
51179;SDS011;37243;49.814;8.652;2023-02-15T08:21:16;3.95;;;3.45;;
51179;SDS011;37243;49.814;8.652;2023-02-15T08:23:45;4.05;;;3.75;;
51179;SDS011;37243;49.814;8.652;2023-02-15T08:26:14;3.78;;;3.47;;
51179;SDS011;37243;49.814;8.652;2023-02-15T08:28:45;3.78;;;3.47;;
51179;SDS011;37243;49.814;8.652;2023-02-15T08:31:14;3.08;;;2.88;;
51179;SDS011;37243;49.814;8.652;2023-02-15T08:33:43;3.88;;;3.58;;
51179;SDS011;37243;49.814;8.652;2023-02-15T08:36:13;3.83;;;3.58;;
51179;SDS011;37243;49.814;8.652;2023-02-15T08:38:42;3.42;;;3.22;;
51179;SDS011;37243;49.814;8.652;2023-02-15T08:41:12;4.00;;;3.70;;
51179;SDS011;37243;49.814;8.652;2023-02-15T08:43:45;3.30;;;3.10;;
51179;SDS011;37243;49.814;8.652;2023-02-15T08:46:16;3.58;;;3.17;;
51179;SDS011;37243;49.814;8.652;2023-02-15T08:48:45;3.55;;;3.25;;
51179;SDS011;37243;49.814;8.652;2023-02-15T08:51:14;3.55;;;3.35;;
51179;SDS011;37243;49.814;8.652;2023-02-15T08:53:44;3.53;;;3.22;;
51179;SDS011;37243;49.814;8.652;2023-02-15T08:56:14;3.17;;;2.90;;
51179;SDS011;37243;49.814;8.652;2023-02-15T08:58:45;3.40;;;3.13;;
51179;SDS011;37243;49.814;8.652;2023-02-15T09:01:15;3.65;;;3.35;;
51179;SDS011;37243;49.814;8.652;2023-02-15T09:03:46;3.55;;;3.28;;
51179;SDS011;37243;49.814;8.652;2023-02-15T09:06:17;3.90;;;3.60;;
51179;SDS011;37243;49.814;8.652;2023-02-15T09:08:46;3.58;;;3.38;;
51179;SDS011;37243;49.814;8.652;2023-02-15T09:11:16;3.72;;;3.42;;
51179;SDS011;37243;49.814;8.652;2023-02-15T09:13:53;3.28;;;2.95;;
51179;SDS011;37243;49.814;8.652;2023-02-15T09:16:23;3.75;;;3.45;;
51179;SDS011;37243;49.814;8.652;2023-02-15T09:18:52;3.65;;;3.35;;
51179;SDS011;37243;49.814;8.652;2023-02-15T09:21:22;3.97;;;3.20;;
51179;SDS011;37243;49.814;8.652;2023-02-15T09:23:56;3.33;;;3.13;;
51179;SDS011;37243;49.814;8.652;2023-02-15T09:26:27;4.25;;;3.42;;
51179;SDS011;37243;49.814;8.652;2023-02-15T09:28:59;3.05;;;2.85;;
51179;SDS011;37243;49.814;8.652;2023-02-15T09:31:29;3.33;;;3.13;;
51179;SDS011;37243;49.814;8.652;2023-02-15T09:33:59;3.72;;;3.53;;
51179;SDS011;37243;49.814;8.652;2023-02-15T09:36:29;3.33;;;3.13;;
51179;SDS011;37243;49.814;8.652;2023-02-15T09:38:59;3.58;;;3.33;;
51179;SDS011;37243;49.814;8.652;2023-02-15T09:44:49;3.22;;;3.03;;
51179;SDS011;37243;49.814;8.652;2023-02-15T09:47:39;3.45;;;3.25;;
51179;SDS011;37243;49.814;8.652;2023-02-15T09:50:21;3.20;;;3.00;;
51179;SDS011;37243;49.814;8.652;2023-02-15T09:53:01;3.42;;;3.13;;
51179;SDS011;37243;49.814;8.652;2023-02-15T09:55:46;2.85;;;2.75;;
51179;SDS011;37243;49.814;8.652;2023-02-15T09:58:23;3.67;;;3.38;;
51179;SDS011;37243;49.814;8.652;2023-02-15T10:01:04;3.25;;;3.05;;
51179;SDS011;37243;49.814;8.652;2023-02-15T10:03:42;3.85;;;3.63;;
51179;SDS011;37243;49.814;8.652;2023-02-15T10:06:27;3.28;;;3.08;;
51179;SDS011;37243;49.814;8.652;2023-02-15T10:09:23;3.60;;;3.33;;
51179;SDS011;37243;49.814;8.652;2023-02-15T10:12:10;4.45;;;3.40;;
51179;SDS011;37243;49.814;8.652;2023-02-15T10:14:55;3.60;;;3.30;;
51179;SDS011;37243;49.814;8.652;2023-02-15T10:17:43;3.72;;;3.47;;
51179;SDS011;37243;49.814;8.652;2023-02-15T10:20:22;2.97;;;2.80;;
51179;SDS011;37243;49.814;8.652;2023-02-15T10:23:00;3.45;;;3.25;;
51179;SDS011;37243;49.814;8.652;2023-02-15T10:25:46;3.30;;;3.10;;
51179;SDS011;37243;49.814;8.652;2023-02-15T10:28:20;3.20;;;3.00;;
51179;SDS011;37243;49.814;8.652;2023-02-15T10:30:54;2.97;;;2.85;;
51179;SDS011;37243;49.814;8.652;2023-02-15T10:33:38;3.60;;;3.30;;
51179;SDS011;37243;49.814;8.652;2023-02-15T10:36:11;3.55;;;3.35;;
51179;SDS011;37243;49.814;8.652;2023-02-15T10:38:51;3.28;;;3.08;;
51179;SDS011;37243;49.814;8.652;2023-02-15T10:41:32;3.65;;;3.35;;
51179;SDS011;37243;49.814;8.652;2023-02-15T10:44:13;3.05;;;2.85;;
51179;SDS011;37243;49.814;8.652;2023-02-15T10:47:00;3.28;;;3.08;;
51179;SDS011;37243;49.814;8.652;2023-02-15T10:49:45;3.03;;;2.83;;
51179;SDS011;37243;49.814;8.652;2023-02-15T10:52:29;11.45;;;4.30;;
51179;SDS011;37243;49.814;8.652;2023-02-15T10:55:11;3.47;;;3.08;;
51179;SDS011;37243;49.814;8.652;2023-02-15T10:57:48;3.53;;;3.22;;
51179;SDS011;37243;49.814;8.652;2023-02-15T11:00:25;3.58;;;3.28;;
51179;SDS011;37243;49.814;8.652;2023-02-15T11:03:14;3.20;;;3.00;;
51179;SDS011;37243;49.814;8.652;2023-02-15T11:05:58;3.80;;;3.45;;
51179;SDS011;37243;49.814;8.652;2023-02-15T11:08:34;4.32;;;3.28;;
51179;SDS011;37243;49.814;8.652;2023-02-15T11:11:06;3.88;;;3.58;;
51179;SDS011;37243;49.814;8.652;2023-02-15T11:13:38;3.47;;;3.28;;
51179;SDS011;37243;49.814;8.652;2023-02-15T11:16:11;3.40;;;3.20;;
51179;SDS011;37243;49.814;8.652;2023-02-15T11:18:43;5.82;;;5.30;;
51179;SDS011;37243;49.814;8.652;2023-02-15T11:21:20;4.97;;;4.57;;
51179;SDS011;37243;49.814;8.652;2023-02-15T11:23:50;4.20;;;3.90;;
51179;SDS011;37243;49.814;8.652;2023-02-15T11:26:20;3.83;;;3.60;;
51179;SDS011;37243;49.814;8.652;2023-02-15T11:28:55;4.03;;;3.72;;
51179;SDS011;37243;49.814;8.652;2023-02-15T11:31:29;4.53;;;4.13;;
51179;SDS011;37243;49.814;8.652;2023-02-15T11:34:12;4.93;;;4.32;;
51179;SDS011;37243;49.814;8.652;2023-02-15T11:36:49;4.78;;;4.30;;
51179;SDS011;37243;49.814;8.652;2023-02-15T11:39:20;5.25;;;4.35;;
51179;SDS011;37243;49.814;8.652;2023-02-15T11:41:50;4.38;;;4.00;;
51179;SDS011;37243;49.814;8.652;2023-02-15T11:44:22;4.35;;;4.00;;
51179;SDS011;37243;49.814;8.652;2023-02-15T11:46:54;4.07;;;3.78;;
51179;SDS011;37243;49.814;8.652;2023-02-15T11:49:24;4.45;;;4.05;;
51179;SDS011;37243;49.814;8.652;2023-02-15T11:51:59;4.65;;;3.97;;
51179;SDS011;37243;49.814;8.652;2023-02-15T11:54:30;4.53;;;4.20;;
51179;SDS011;37243;49.814;8.652;2023-02-15T11:57:02;4.05;;;3.75;;
51179;SDS011;37243;49.814;8.652;2023-02-15T11:59:38;4.30;;;3.90;;
51179;SDS011;37243;49.814;8.652;2023-02-15T12:02:14;4.13;;;3.83;;
51179;SDS011;37243;49.814;8.652;2023-02-15T12:04:47;4.72;;;4.40;;
51179;SDS011;37243;49.814;8.652;2023-02-15T12:07:23;4.10;;;3.78;;
51179;SDS011;37243;49.814;8.652;2023-02-15T12:09:56;3.97;;;3.78;;
51179;SDS011;37243;49.814;8.652;2023-02-15T12:12:32;4.70;;;4.30;;
51179;SDS011;37243;49.814;8.652;2023-02-15T12:15:04;4.45;;;4.05;;
51179;SDS011;37243;49.814;8.652;2023-02-15T12:17:35;4.72;;;4.32;;
51179;SDS011;37243;49.814;8.652;2023-02-15T12:20:20;5.05;;;4.10;;
51179;SDS011;37243;49.814;8.652;2023-02-15T12:22:58;4.70;;;4.30;;
51179;SDS011;37243;49.814;8.652;2023-02-15T12:25:32;4.15;;;3.85;;
51179;SDS011;37243;49.814;8.652;2023-02-15T12:28:04;4.18;;;3.88;;
51179;SDS011;37243;49.814;8.652;2023-02-15T12:30:43;4.15;;;3.85;;
51179;SDS011;37243;49.814;8.652;2023-02-15T12:33:13;4.03;;;3.83;;
51179;SDS011;37243;49.814;8.652;2023-02-15T12:35:54;4.28;;;3.97;;
51179;SDS011;37243;49.814;8.652;2023-02-15T12:38:29;4.30;;;4.00;;
51179;SDS011;37243;49.814;8.652;2023-02-15T12:40:58;4.53;;;4.22;;
51179;SDS011;37243;49.814;8.652;2023-02-15T12:43:30;4.00;;;3.80;;
51179;SDS011;37243;49.814;8.652;2023-02-15T12:49:06;4.13;;;3.83;;
51179;SDS011;37243;49.814;8.652;2023-02-15T12:51:42;4.03;;;3.83;;
51179;SDS011;37243;49.814;8.652;2023-02-15T12:54:21;4.35;;;4.15;;
51179;SDS011;37243;49.814;8.652;2023-02-15T12:56:57;3.83;;;3.63;;
51179;SDS011;37243;49.814;8.652;2023-02-15T12:59:26;4.10;;;3.90;;
51179;SDS011;37243;49.814;8.652;2023-02-15T13:01:54;4.75;;;4.35;;
51179;SDS011;37243;49.814;8.652;2023-02-15T13:04:24;4.38;;;4.07;;
51179;SDS011;37243;49.814;8.652;2023-02-15T13:06:54;4.15;;;3.95;;
51179;SDS011;37243;49.814;8.652;2023-02-15T13:09:34;4.68;;;4.38;;
51179;SDS011;37243;49.814;8.652;2023-02-15T13:12:09;4.70;;;4.40;;
51179;SDS011;37243;49.814;8.652;2023-02-15T13:14:43;4.95;;;3.80;;
51179;SDS011;37243;49.814;8.652;2023-02-15T13:17:16;4.15;;;3.95;;
51179;SDS011;37243;49.814;8.652;2023-02-15T13:19:46;3.95;;;3.75;;
51179;SDS011;37243;49.814;8.652;2023-02-15T13:22:20;4.35;;;4.05;;
51179;SDS011;37243;49.814;8.652;2023-02-15T13:24:56;4.07;;;3.72;;
51179;SDS011;37243;49.814;8.652;2023-02-15T13:27:29;4.07;;;3.88;;
51179;SDS011;37243;49.814;8.652;2023-02-15T13:30:03;3.70;;;3.50;;
51179;SDS011;37243;49.814;8.652;2023-02-15T13:32:46;3.88;;;3.67;;
51179;SDS011;37243;49.814;8.652;2023-02-15T13:35:17;4.40;;;4.20;;
51179;SDS011;37243;49.814;8.652;2023-02-15T13:37:50;4.40;;;4.10;;
51179;SDS011;37243;49.814;8.652;2023-02-15T13:40:40;4.22;;;4.03;;
51179;SDS011;37243;49.814;8.652;2023-02-15T13:43:17;4.38;;;4.00;;
51179;SDS011;37243;49.814;8.652;2023-02-15T13:46:01;4.43;;;4.13;;
51179;SDS011;37243;49.814;8.652;2023-02-15T13:48:41;4.25;;;3.90;;
51179;SDS011;37243;49.814;8.652;2023-02-15T13:51:16;4.10;;;3.90;;
51179;SDS011;37243;49.814;8.652;2023-02-15T13:53:55;4.00;;;3.70;;
51179;SDS011;37243;49.814;8.652;2023-02-15T13:56:47;4.55;;;4.18;;
51179;SDS011;37243;49.814;8.652;2023-02-15T13:59:25;5.82;;;4.45;;
51179;SDS011;37243;49.814;8.652;2023-02-15T14:02:13;4.00;;;3.80;;
51179;SDS011;37243;49.814;8.652;2023-02-15T14:05:02;4.50;;;4.20;;
51179;SDS011;37243;49.814;8.652;2023-02-15T14:07:49;4.65;;;4.25;;
51179;SDS011;37243;49.814;8.652;2023-02-15T14:10:34;4.40;;;4.10;;
51179;SDS011;37243;49.814;8.652;2023-02-15T14:16:14;4.28;;;4.03;;
51179;SDS011;37243;49.814;8.652;2023-02-15T14:18:48;4.18;;;3.88;;
51179;SDS011;37243;49.814;8.652;2023-02-15T14:21:25;4.32;;;4.03;;
51179;SDS011;37243;49.814;8.652;2023-02-15T14:24:06;5.97;;;5.47;;
51179;SDS011;37243;49.814;8.652;2023-02-15T14:26:47;5.80;;;5.30;;
51179;SDS011;37243;49.814;8.652;2023-02-15T14:29:23;5.30;;;4.80;;
51179;SDS011;37243;49.814;8.652;2023-02-15T14:32:00;4.57;;;4.22;;
51179;SDS011;37243;49.814;8.652;2023-02-15T14:34:36;5.38;;;4.97;;
51179;SDS011;37243;49.814;8.652;2023-02-15T14:37:12;5.47;;;5.07;;
51179;SDS011;37243;49.814;8.652;2023-02-15T14:39:44;4.60;;;4.35;;
51179;SDS011;37243;49.814;8.652;2023-02-15T14:42:34;4.30;;;4.00;;
51179;SDS011;37243;49.814;8.652;2023-02-15T14:45:17;4.45;;;4.15;;
51179;SDS011;37243;49.814;8.652;2023-02-15T14:47:52;4.00;;;3.80;;
51179;SDS011;37243;49.814;8.652;2023-02-15T14:50:41;4.35;;;4.10;;
51179;SDS011;37243;49.814;8.652;2023-02-15T14:53:22;4.80;;;4.50;;
51179;SDS011;37243;49.814;8.652;2023-02-15T14:58:56;4.10;;;3.90;;
51179;SDS011;37243;49.814;8.652;2023-02-15T15:01:30;4.78;;;4.30;;
51179;SDS011;37243;49.814;8.652;2023-02-15T15:04:00;4.32;;;4.03;;
51179;SDS011;37243;49.814;8.652;2023-02-15T15:06:34;4.38;;;4.05;;
51179;SDS011;37243;49.814;8.652;2023-02-15T15:09:09;4.25;;;3.95;;
51179;SDS011;37243;49.814;8.652;2023-02-15T15:11:41;4.03;;;3.80;;
51179;SDS011;37243;49.814;8.652;2023-02-15T15:17:08;4.55;;;4.25;;
51179;SDS011;37243;49.814;8.652;2023-02-15T15:22:38;4.20;;;4.00;;
51179;SDS011;37243;49.814;8.652;2023-02-15T15:25:11;4.40;;;4.13;;
51179;SDS011;37243;49.814;8.652;2023-02-15T15:28:00;4.55;;;4.13;;
51179;SDS011;37243;49.814;8.652;2023-02-15T15:36:49;3.97;;;3.78;;
51179;SDS011;37243;49.814;8.652;2023-02-15T15:43:03;4.63;;;4.32;;
51179;SDS011;37243;49.814;8.652;2023-02-15T15:45:55;4.38;;;4.07;;
51179;SDS011;37243;49.814;8.652;2023-02-15T15:48:34;4.00;;;3.80;;
51179;SDS011;37243;49.814;8.652;2023-02-15T15:51:10;3.88;;;3.67;;
51179;SDS011;37243;49.814;8.652;2023-02-15T15:53:43;4.60;;;4.22;;
51179;SDS011;37243;49.814;8.652;2023-02-15T15:56:17;4.07;;;3.88;;
51179;SDS011;37243;49.814;8.652;2023-02-15T15:58:48;4.20;;;3.90;;
51179;SDS011;37243;49.814;8.652;2023-02-15T16:01:23;5.30;;;4.90;;